createdAt,value
2019-05-11T00:02:39.362Z,13.90
2019-05-11T00:06:42.435Z,14.00
2019-05-11T00:10:45.469Z,14.20
2019-05-11T00:14:48.578Z,14.30
2019-05-11T00:18:51.581Z,14.30
2019-05-11T00:22:54.647Z,14.30
2019-05-11T00:26:57.731Z,14.30
2019-05-11T00:31:00.735Z,14.30
2019-05-11T00:35:06.373Z,14.20
2019-05-11T00:39:09.372Z,14.20
2019-05-11T00:43:12.396Z,14.30
2019-05-11T00:47:15.416Z,14.20
2019-05-11T00:51:18.438Z,14.20
2019-05-11T00:55:21.443Z,14.20
2019-05-11T00:59:24.611Z,13.60
2019-05-11T01:03:27.683Z,13.20
2019-05-11T01:07:30.921Z,13.00
2019-05-11T01:11:33.959Z,12.80
2019-05-11T01:15:36.969Z,12.70
2019-05-11T01:19:40.000Z,12.70
2019-05-11T01:23:43.013Z,12.60
2019-05-11T01:27:46.019Z,12.70
2019-05-11T01:31:49.060Z,13.00
2019-05-11T01:35:52.827Z,13.30
2019-05-11T01:39:55.851Z,13.30
2019-05-11T01:43:58.872Z,13.00
2019-05-11T01:48:01.876Z,12.80
2019-05-11T01:52:04.879Z,12.80
2019-05-11T01:56:07.886Z,12.70
2019-05-11T02:00:11.196Z,12.70
2019-05-11T02:04:14.201Z,12.90
2019-05-11T02:08:17.205Z,13.10
2019-05-11T02:12:20.473Z,13.30
2019-05-11T02:16:23.497Z,13.40
2019-05-11T02:20:26.519Z,13.40
2019-05-11T02:24:29.712Z,13.30
2019-05-11T02:28:32.717Z,13.00
2019-05-11T02:32:35.787Z,12.90
2019-05-11T02:36:40.285Z,12.80
2019-05-11T02:40:43.295Z,12.60
2019-05-11T02:44:46.419Z,12.40
2019-05-11T02:48:49.417Z,12.30
2019-05-11T02:52:52.516Z,12.30
2019-05-11T02:56:55.520Z,12.40
2019-05-11T03:00:58.529Z,12.40
2019-05-11T03:05:05.548Z,12.20
2019-05-11T03:09:08.552Z,12.00
2019-05-11T03:13:11.557Z,11.90
2019-05-11T03:17:16.463Z,11.90
2019-05-11T03:21:19.460Z,12.20
2019-05-11T03:25:22.465Z,12.10
2019-05-11T03:29:25.484Z,12.10
2019-05-11T03:33:28.526Z,12.00
2019-05-11T03:37:32.900Z,11.90
2019-05-11T03:41:36.264Z,11.80
2019-05-11T03:45:39.390Z,11.70
2019-05-11T03:49:42.462Z,11.70
2019-05-11T03:53:45.571Z,11.80
2019-05-11T03:57:48.564Z,11.60
2019-05-11T04:01:51.577Z,11.60
2019-05-11T04:05:54.675Z,11.60
2019-05-11T04:09:57.681Z,11.60
2019-05-11T04:14:00.681Z,11.70
2019-05-11T04:18:03.691Z,11.70
2019-05-11T04:22:06.942Z,11.70
2019-05-11T04:26:09.948Z,11.70
2019-05-11T04:30:13.369Z,11.80
2019-05-11T04:34:16.407Z,11.60
2019-05-11T04:38:20.459Z,11.40
2019-05-11T04:42:23.467Z,11.40
2019-05-11T04:46:26.473Z,11.50
2019-05-11T04:50:29.511Z,11.70
2019-05-11T04:54:32.592Z,11.80
2019-05-11T04:58:35.628Z,11.80
2019-05-11T05:02:38.625Z,11.80
2019-05-11T05:06:41.685Z,11.90
2019-05-11T05:10:44.821Z,12.10
2019-05-11T05:14:47.822Z,12.30
2019-05-11T05:18:50.886Z,12.60
2019-05-11T05:22:53.893Z,12.70
2019-05-11T05:26:56.903Z,12.70
2019-05-11T05:30:59.912Z,12.70
2019-05-11T05:35:06.093Z,12.90
2019-05-11T05:39:10.541Z,12.50
2019-05-11T05:43:25.645Z,12.50
2019-05-11T05:47:18.460Z,12.60
2019-05-11T05:51:21.477Z,12.30
2019-05-11T05:55:24.496Z,12.00
2019-05-11T05:59:27.523Z,12.10
2019-05-11T06:03:30.533Z,12.20
2019-05-11T06:07:33.541Z,12.10
2019-05-11T06:11:36.751Z,12.30
2019-05-11T06:15:39.777Z,12.40
2019-05-11T06:19:42.920Z,12.40
2019-05-11T06:23:46.124Z,12.70
2019-05-11T06:27:49.159Z,12.90
2019-05-11T06:31:52.155Z,12.50
2019-05-11T06:35:55.632Z,12.10
2019-05-11T06:40:01.221Z,12.30
2019-05-11T06:44:04.407Z,12.60
2019-05-11T06:48:07.416Z,12.90
2019-05-11T06:52:10.588Z,12.90
2019-05-11T06:56:13.595Z,13.00
2019-05-11T07:00:16.798Z,13.20
2019-05-11T07:04:19.831Z,13.10
2019-05-11T07:08:23.001Z,13.40
2019-05-11T07:12:27.701Z,13.60
2019-05-11T07:16:31.006Z,13.80
2019-05-11T07:20:48.285Z,13.70
2019-05-11T07:24:38.984Z,13.50
2019-05-11T07:28:42.092Z,13.40
2019-05-11T07:32:45.099Z,13.60
2019-05-11T07:36:49.221Z,13.60
2019-05-11T07:40:53.315Z,14.00
2019-05-11T07:44:58.229Z,14.70
2019-05-11T07:49:01.481Z,14.60
2019-05-11T07:53:04.487Z,14.40
2019-05-11T07:57:07.973Z,14.30
2019-05-11T08:01:11.076Z,14.40
2019-05-11T08:05:14.085Z,14.40
2019-05-11T08:09:18.658Z,14.40
2019-05-11T08:13:21.895Z,14.40
2019-05-11T08:17:25.010Z,14.60
2019-05-11T08:21:28.522Z,14.40
2019-05-11T08:25:31.679Z,14.60
2019-05-11T08:29:34.689Z,14.50
2019-05-11T08:33:38.872Z,14.70
2019-05-11T08:37:42.150Z,14.90
2019-05-11T08:41:45.701Z,15.00
2019-05-11T08:45:48.803Z,14.80
2019-05-11T08:49:51.815Z,14.80
2019-05-11T08:53:54.827Z,14.80
2019-05-11T08:57:58.563Z,14.80
2019-05-11T09:02:01.810Z,14.50
2019-05-11T09:06:04.904Z,14.60
2019-05-11T09:10:08.347Z,14.70
2019-05-11T09:14:11.426Z,14.70
2019-05-11T09:18:14.508Z,14.60
2019-05-11T09:22:18.695Z,15.00
2019-05-11T09:26:21.968Z,15.10
2019-05-11T09:30:25.059Z,15.10
2019-05-11T09:34:28.833Z,15.00
2019-05-11T09:38:32.178Z,14.70
2019-05-11T09:42:35.699Z,14.80
2019-05-11T09:46:38.742Z,14.80
2019-05-11T09:50:41.761Z,14.80
2019-05-11T09:54:44.841Z,14.80
2019-05-11T09:58:48.251Z,14.80
2019-05-11T10:02:51.463Z,15.00
2019-05-11T10:06:54.607Z,15.20
2019-05-11T10:10:58.170Z,15.20
2019-05-11T10:15:01.601Z,14.90
2019-05-11T10:19:04.772Z,14.90
2019-05-11T10:23:08.460Z,15.00
2019-05-11T10:27:11.636Z,15.20
2019-05-11T10:31:14.643Z,15.80
2019-05-11T10:35:18.360Z,16.20
2019-05-11T10:39:21.769Z,16.20
2019-05-11T10:43:28.707Z,15.80
2019-05-11T10:47:31.604Z,15.70
2019-05-11T10:51:34.751Z,15.60
2019-05-11T10:55:38.629Z,15.50
2019-05-11T10:59:41.983Z,15.50
2019-05-11T11:03:44.987Z,15.40
2019-05-11T11:07:48.547Z,15.50
2019-05-11T11:11:51.732Z,15.60
2019-05-11T11:15:54.733Z,15.20
2019-05-11T11:19:58.130Z,15.60
2019-05-11T11:24:01.335Z,15.40
2019-05-11T11:28:04.341Z,15.40
2019-05-11T11:32:08.030Z,15.60
2019-05-11T11:36:11.596Z,15.60
2019-05-11T11:40:17.511Z,15.50
2019-05-11T11:44:21.168Z,15.00
2019-05-11T11:48:24.480Z,14.90
2019-05-11T11:52:27.763Z,14.60
2019-05-11T11:56:30.948Z,14.30
2019-05-11T12:00:33.953Z,14.80
2019-05-11T12:04:38.821Z,15.10
2019-05-11T12:08:41.982Z,14.70
2019-05-11T12:12:44.991Z,14.20
2019-05-11T12:17:03.643Z,14.20
2019-05-11T12:20:53.283Z,14.10
2019-05-11T12:24:58.753Z,14.00
2019-05-11T12:29:01.221Z,14.00
2019-05-11T12:33:04.261Z,13.60
2019-05-11T12:37:08.488Z,13.80
2019-05-11T12:41:11.643Z,13.70
2019-05-11T12:45:18.196Z,14.00
2019-05-11T12:49:21.383Z,13.60
2019-05-11T12:53:24.468Z,13.80
2019-05-11T12:57:28.153Z,13.80
2019-05-11T13:01:31.362Z,13.80
2019-05-11T13:05:34.564Z,13.80
2019-05-11T13:09:38.049Z,13.60
2019-05-11T13:13:41.209Z,13.50
2019-05-11T13:17:44.227Z,13.60
2019-05-11T13:21:48.677Z,13.80
2019-05-11T13:25:51.827Z,14.80
2019-05-11T13:29:54.864Z,14.80
2019-05-11T13:33:58.551Z,15.10
2019-05-11T13:38:01.689Z,14.90
2019-05-11T13:42:04.695Z,15.20
2019-05-11T13:46:09.985Z,15.30
2019-05-11T13:50:12.989Z,15.00
2019-05-11T13:54:18.259Z,15.00
2019-05-11T13:58:20.901Z,14.50
2019-05-11T14:02:23.932Z,14.20
2019-05-11T14:06:28.901Z,14.00
2019-05-11T14:10:31.847Z,13.90
2019-05-11T14:14:34.935Z,14.60
2019-05-11T14:18:38.670Z,14.20
2019-05-11T14:22:41.836Z,14.30
2019-05-11T14:26:44.839Z,14.30
2019-05-11T14:30:48.592Z,14.30
2019-05-11T14:34:51.832Z,14.50
2019-05-11T14:38:54.831Z,13.90
2019-05-11T14:42:58.258Z,13.90
2019-05-11T14:47:02.759Z,13.80
2019-05-11T14:51:05.761Z,13.70
2019-05-11T14:55:09.092Z,13.70
2019-05-11T14:59:12.089Z,13.50
2019-05-11T15:03:15.084Z,13.30
2019-05-11T15:07:18.086Z,13.20
2019-05-11T15:11:21.390Z,13.10
2019-05-11T15:15:24.419Z,13.20
2019-05-11T15:19:27.864Z,13.20
2019-05-11T15:23:31.040Z,13.60
2019-05-11T15:27:34.052Z,13.30
2019-05-11T15:31:38.122Z,13.10
2019-05-11T15:35:41.387Z,13.00
2019-05-11T15:39:44.409Z,13.00
2019-05-11T15:43:48.047Z,13.00
2019-05-11T15:47:52.491Z,12.80
2019-05-11T15:51:57.759Z,12.90
2019-05-11T15:56:00.723Z,12.90
2019-05-11T16:00:05.241Z,12.80
2019-05-11T16:04:09.085Z,12.70
2019-05-11T16:08:12.347Z,12.90
2019-05-11T16:12:15.515Z,12.80
2019-05-11T16:16:18.535Z,12.90
2019-05-11T16:20:21.652Z,12.70
2019-05-11T16:24:24.662Z,12.70
2019-05-11T16:28:30.357Z,12.50
2019-05-11T16:32:32.697Z,12.40
2019-05-11T16:36:35.791Z,12.20
2019-05-11T16:40:38.811Z,11.90
2019-05-11T16:44:41.824Z,11.80
2019-05-11T16:48:45.679Z,11.60
2019-05-11T16:52:48.678Z,11.60
2019-05-11T16:56:51.678Z,11.70
2019-05-11T17:00:54.673Z,11.80
2019-05-11T17:04:58.232Z,11.70
2019-05-11T17:09:01.239Z,11.70
2019-05-11T17:13:04.255Z,11.70
2019-05-11T17:17:08.204Z,11.70
2019-05-11T17:21:11.501Z,11.60
2019-05-11T17:25:14.490Z,11.60
2019-05-11T17:29:18.574Z,11.40
2019-05-11T17:33:21.848Z,11.40
2019-05-11T17:37:24.872Z,11.30
2019-05-11T17:41:28.042Z,11.30
2019-05-11T17:45:31.102Z,11.20
2019-05-11T17:49:34.933Z,11.30
2019-05-11T17:53:38.011Z,11.30
2019-05-11T17:57:41.488Z,11.10
2019-05-11T18:01:44.486Z,11.20
2019-05-11T18:05:48.553Z,11.10
2019-05-11T18:09:51.694Z,11.30
2019-05-11T18:13:54.925Z,11.20
2019-05-11T18:17:58.807Z,11.10
2019-05-11T18:22:02.045Z,11.00
2019-05-11T18:26:05.049Z,10.90
2019-05-11T18:30:08.809Z,10.80
2019-05-11T18:34:11.964Z,10.80
2019-05-11T18:38:14.973Z,10.70
2019-05-11T18:42:18.510Z,10.70
2019-05-11T18:46:21.704Z,10.70
2019-05-11T18:50:31.169Z,10.70
2019-05-11T18:54:31.669Z,10.60
2019-05-11T18:58:34.752Z,10.80
2019-05-11T19:02:38.716Z,10.80
2019-05-11T19:06:41.868Z,10.70
2019-05-11T19:10:44.997Z,10.80
2019-05-11T19:14:48.125Z,10.80
2019-05-11T19:18:51.185Z,10.80
2019-05-11T19:22:54.180Z,10.90
2019-05-11T19:26:58.814Z,10.80
2019-05-11T19:31:01.916Z,10.80
2019-05-11T19:35:05.004Z,11.00
2019-05-11T19:39:08.939Z,11.00
2019-05-11T19:43:12.463Z,11.00
2019-05-11T19:47:17.911Z,11.00
2019-05-11T19:51:22.168Z,10.90
2019-05-11T19:55:25.239Z,11.00
2019-05-11T19:59:28.245Z,11.10
2019-05-11T20:03:31.239Z,11.10
2019-05-11T20:07:34.244Z,11.10
2019-05-11T20:11:38.383Z,11.20
2019-05-11T20:15:41.581Z,11.30
2019-05-11T20:19:44.591Z,11.30
2019-05-11T20:23:48.531Z,11.40
2019-05-11T20:27:51.631Z,11.40
2019-05-11T20:31:54.642Z,11.60
2019-05-11T20:35:58.226Z,11.60
2019-05-11T20:40:01.345Z,11.60
2019-05-11T20:44:04.343Z,11.60
2019-05-11T20:48:07.907Z,11.60
2019-05-11T20:52:11.540Z,11.50
2019-05-11T20:56:14.561Z,11.50
2019-05-11T21:00:18.752Z,11.40
2019-05-11T21:04:22.080Z,11.30
2019-05-11T21:08:25.092Z,11.30
2019-05-11T21:12:28.885Z,11.20
2019-05-11T21:16:32.029Z,11.20
2019-05-11T21:20:35.019Z,11.20
2019-05-11T21:24:38.041Z,11.20
2019-05-11T21:28:41.085Z,11.00
2019-05-11T21:32:44.208Z,11.00
2019-05-11T21:36:48.341Z,11.00
2019-05-11T21:40:51.556Z,10.90
2019-05-11T21:44:54.662Z,10.90
2019-05-11T21:48:58.304Z,10.80
2019-05-11T21:53:02.527Z,10.80
2019-05-11T21:57:05.544Z,10.70
2019-05-11T22:01:08.558Z,10.60
2019-05-11T22:05:12.366Z,10.50
2019-05-11T22:09:15.488Z,10.50
2019-05-11T22:13:20.615Z,10.40
2019-05-11T22:17:23.396Z,10.40
2019-05-11T22:21:28.039Z,10.30
2019-05-11T22:25:31.216Z,10.20
2019-05-11T22:29:34.216Z,10.10
2019-05-11T22:33:38.550Z,10.10
2019-05-11T22:37:41.754Z,9.90
2019-05-11T22:41:44.770Z,9.90
2019-05-11T22:45:48.633Z,9.80
2019-05-11T22:49:51.694Z,9.80
2019-05-11T22:53:56.274Z,9.70
2019-05-11T22:57:59.372Z,9.70
2019-05-11T23:02:02.391Z,9.60
2019-05-11T23:06:05.396Z,9.50
2019-05-11T23:10:08.805Z,9.50
2019-05-11T23:14:11.918Z,9.30
2019-05-11T23:18:14.913Z,9.30
2019-05-11T23:22:18.341Z,9.30
2019-05-11T23:26:21.462Z,9.30
2019-05-11T23:30:24.633Z,9.30
2019-05-11T23:34:28.266Z,9.30
2019-05-11T23:38:31.559Z,9.10
2019-05-11T23:42:34.736Z,9.10
2019-05-11T23:46:38.675Z,9.10
2019-05-11T23:50:41.853Z,9.20
2019-05-11T23:54:48.447Z,9.40
2019-05-11T23:58:51.593Z,9.40
